sensor_id;sensor_type;location;lat;lon;timestamp;P1;durP1;ratioP1;P2;durP2;ratioP2
42168;SDS011;27838;43.858;25.974;2023-05-10T00:00:06;13.93;;;10.10;;
42168;SDS011;27838;43.858;25.974;2023-05-10T00:02:34;16.27;;;8.80;;
42168;SDS011;27838;43.858;25.974;2023-05-10T00:05:01;19.08;;;9.63;;
42168;SDS011;27838;43.858;25.974;2023-05-10T00:07:27;13.23;;;9.25;;
42168;SDS011;27838;43.858;25.974;2023-05-10T00:09:54;16.63;;;9.38;;
42168;SDS011;27838;43.858;25.974;2023-05-10T00:12:20;46.22;;;12.07;;
42168;SDS011;27838;43.858;25.974;2023-05-10T00:14:47;20.95;;;9.98;;
42168;SDS011;27838;43.858;25.974;2023-05-10T00:17:13;14.82;;;9.68;;
42168;SDS011;27838;43.858;25.974;2023-05-10T00:19:40;14.18;;;9.40;;
42168;SDS011;27838;43.858;25.974;2023-05-10T00:22:07;13.13;;;9.57;;
42168;SDS011;27838;43.858;25.974;2023-05-10T00:24:33;54.90;;;14.10;;
42168;SDS011;27838;43.858;25.974;2023-05-10T00:27:00;28.88;;;11.07;;
42168;SDS011;27838;43.858;25.974;2023-05-10T00:29:28;19.00;;;10.57;;
42168;SDS011;27838;43.858;25.974;2023-05-10T00:31:55;29.83;;;11.45;;
42168;SDS011;27838;43.858;25.974;2023-05-10T00:34:22;14.57;;;8.98;;
42168;SDS011;27838;43.858;25.974;2023-05-10T00:36:49;11.93;;;9.30;;
42168;SDS011;27838;43.858;25.974;2023-05-10T00:39:16;12.38;;;10.30;;
42168;SDS011;27838;43.858;25.974;2023-05-10T00:41:42;13.57;;;9.20;;
42168;SDS011;27838;43.858;25.974;2023-05-10T00:44:09;16.25;;;10.23;;
42168;SDS011;27838;43.858;25.974;2023-05-10T00:46:35;17.77;;;9.63;;
42168;SDS011;27838;43.858;25.974;2023-05-10T00:49:02;11.25;;;8.95;;
42168;SDS011;27838;43.858;25.974;2023-05-10T00:51:29;13.80;;;8.90;;
42168;SDS011;27838;43.858;25.974;2023-05-10T00:53:56;16.02;;;9.00;;
42168;SDS011;27838;43.858;25.974;2023-05-10T00:56:23;11.90;;;8.30;;
42168;SDS011;27838;43.858;25.974;2023-05-10T00:58:49;13.15;;;8.85;;
42168;SDS011;27838;43.858;25.974;2023-05-10T01:01:16;28.63;;;9.88;;
42168;SDS011;27838;43.858;25.974;2023-05-10T01:03:43;31.25;;;12.18;;
42168;SDS011;27838;43.858;25.974;2023-05-10T01:06:10;17.73;;;9.88;;
42168;SDS011;27838;43.858;25.974;2023-05-10T01:08:37;15.75;;;10.15;;
42168;SDS011;27838;43.858;25.974;2023-05-10T01:11:03;16.60;;;10.68;;
42168;SDS011;27838;43.858;25.974;2023-05-10T01:13:31;15.43;;;10.88;;
42168;SDS011;27838;43.858;25.974;2023-05-10T01:16:01;19.53;;;9.87;;
42168;SDS011;27838;43.858;25.974;2023-05-10T01:18:29;11.48;;;9.32;;
42168;SDS011;27838;43.858;25.974;2023-05-10T01:21:01;15.68;;;9.82;;
42168;SDS011;27838;43.858;25.974;2023-05-10T01:35:16;13.55;;;9.43;;
42168;SDS011;27838;43.858;25.974;2023-05-10T01:40:18;14.85;;;9.27;;
42168;SDS011;27838;43.858;25.974;2023-05-10T01:42:55;16.65;;;9.52;;
42168;SDS011;27838;43.858;25.974;2023-05-10T01:45:28;10.98;;;8.88;;
42168;SDS011;27838;43.858;25.974;2023-05-10T01:48:07;11.93;;;9.38;;
42168;SDS011;27838;43.858;25.974;2023-05-10T01:50:37;13.30;;;9.18;;
42168;SDS011;27838;43.858;25.974;2023-05-10T01:53:06;16.88;;;9.50;;
42168;SDS011;27838;43.858;25.974;2023-05-10T01:55:36;14.20;;;9.45;;
42168;SDS011;27838;43.858;25.974;2023-05-10T01:58:09;12.02;;;9.32;;
42168;SDS011;27838;43.858;25.974;2023-05-10T02:00:45;10.98;;;9.43;;
42168;SDS011;27838;43.858;25.974;2023-05-10T02:03:13;11.48;;;9.35;;
42168;SDS011;27838;43.858;25.974;2023-05-10T02:05:42;11.88;;;9.85;;
42168;SDS011;27838;43.858;25.974;2023-05-10T02:08:12;12.80;;;10.00;;
42168;SDS011;27838;43.858;25.974;2023-05-10T02:10:40;16.52;;;10.30;;
42168;SDS011;27838;43.858;25.974;2023-05-10T02:13:08;15.77;;;11.73;;
42168;SDS011;27838;43.858;25.974;2023-05-10T02:15:37;12.95;;;9.45;;
42168;SDS011;27838;43.858;25.974;2023-05-10T02:18:06;17.45;;;10.32;;
42168;SDS011;27838;43.858;25.974;2023-05-10T02:20:35;17.67;;;9.73;;
42168;SDS011;27838;43.858;25.974;2023-05-10T02:23:03;24.58;;;11.20;;
42168;SDS011;27838;43.858;25.974;2023-05-10T02:25:31;17.02;;;11.00;;
42168;SDS011;27838;43.858;25.974;2023-05-10T02:27:59;19.20;;;11.38;;
42168;SDS011;27838;43.858;25.974;2023-05-10T02:30:28;47.90;;;12.30;;
42168;SDS011;27838;43.858;25.974;2023-05-10T02:32:55;17.85;;;11.25;;
42168;SDS011;27838;43.858;25.974;2023-05-10T02:35:23;34.05;;;13.27;;
42168;SDS011;27838;43.858;25.974;2023-05-10T02:37:52;35.70;;;11.80;;
42168;SDS011;27838;43.858;25.974;2023-05-10T02:40:19;23.10;;;12.32;;
42168;SDS011;27838;43.858;25.974;2023-05-10T02:42:48;31.58;;;13.32;;
42168;SDS011;27838;43.858;25.974;2023-05-10T02:45:19;38.63;;;15.07;;
42168;SDS011;27838;43.858;25.974;2023-05-10T02:47:49;32.20;;;12.10;;
42168;SDS011;27838;43.858;25.974;2023-05-10T02:50:16;26.05;;;12.85;;
42168;SDS011;27838;43.858;25.974;2023-05-10T02:52:44;28.60;;;13.00;;
42168;SDS011;27838;43.858;25.974;2023-05-10T02:55:14;22.98;;;13.05;;
42168;SDS011;27838;43.858;25.974;2023-05-10T02:57:48;27.10;;;13.25;;
42168;SDS011;27838;43.858;25.974;2023-05-10T03:00:21;15.60;;;11.27;;
42168;SDS011;27838;43.858;25.974;2023-05-10T03:02:48;18.45;;;11.90;;
42168;SDS011;27838;43.858;25.974;2023-05-10T03:05:14;19.15;;;11.82;;
42168;SDS011;27838;43.858;25.974;2023-05-10T03:07:41;23.48;;;12.30;;
42168;SDS011;27838;43.858;25.974;2023-05-10T03:10:07;20.60;;;11.15;;
42168;SDS011;27838;43.858;25.974;2023-05-10T03:18:09;18.23;;;11.63;;
42168;SDS011;27838;43.858;25.974;2023-05-10T03:20:41;22.27;;;14.43;;
42168;SDS011;27838;43.858;25.974;2023-05-10T03:23:13;20.73;;;11.05;;
42168;SDS011;27838;43.858;25.974;2023-05-10T03:25:53;17.60;;;11.85;;
42168;SDS011;27838;43.858;25.974;2023-05-10T03:28:20;18.73;;;10.15;;
42168;SDS011;27838;43.858;25.974;2023-05-10T03:30:47;14.20;;;10.80;;
42168;SDS011;27838;43.858;25.974;2023-05-10T03:33:15;14.38;;;10.98;;
42168;SDS011;27838;43.858;25.974;2023-05-10T03:35:42;14.57;;;10.73;;
42168;SDS011;27838;43.858;25.974;2023-05-10T03:38:10;15.77;;;11.27;;
42168;SDS011;27838;43.858;25.974;2023-05-10T03:40:38;43.03;;;23.85;;
42168;SDS011;27838;43.858;25.974;2023-05-10T03:43:05;18.38;;;11.77;;
42168;SDS011;27838;43.858;25.974;2023-05-10T03:45:32;14.10;;;11.63;;
42168;SDS011;27838;43.858;25.974;2023-05-10T03:47:58;13.95;;;11.10;;
42168;SDS011;27838;43.858;25.974;2023-05-10T03:50:25;16.65;;;10.68;;
42168;SDS011;27838;43.858;25.974;2023-05-10T03:52:51;16.23;;;11.32;;
42168;SDS011;27838;43.858;25.974;2023-05-10T03:55:18;14.32;;;11.23;;
42168;SDS011;27838;43.858;25.974;2023-05-10T03:57:44;14.73;;;11.60;;
42168;SDS011;27838;43.858;25.974;2023-05-10T04:00:11;18.27;;;11.82;;
42168;SDS011;27838;43.858;25.974;2023-05-10T04:02:38;16.55;;;11.40;;
42168;SDS011;27838;43.858;25.974;2023-05-10T04:05:05;14.43;;;11.07;;
42168;SDS011;27838;43.858;25.974;2023-05-10T04:07:31;23.92;;;12.90;;
42168;SDS011;27838;43.858;25.974;2023-05-10T04:09:58;22.30;;;12.68;;
42168;SDS011;27838;43.858;25.974;2023-05-10T04:12:24;25.52;;;14.43;;
42168;SDS011;27838;43.858;25.974;2023-05-10T04:14:51;27.48;;;14.07;;
42168;SDS011;27838;43.858;25.974;2023-05-10T04:17:17;21.10;;;13.98;;
42168;SDS011;27838;43.858;25.974;2023-05-10T04:19:44;22.73;;;13.63;;
42168;SDS011;27838;43.858;25.974;2023-05-10T04:22:10;34.65;;;14.43;;
42168;SDS011;27838;43.858;25.974;2023-05-10T04:24:37;28.02;;;14.98;;
42168;SDS011;27838;43.858;25.974;2023-05-10T04:27:03;26.10;;;14.48;;
42168;SDS011;27838;43.858;25.974;2023-05-10T04:29:30;24.65;;;15.57;;
42168;SDS011;27838;43.858;25.974;2023-05-10T04:31:56;28.83;;;14.38;;
42168;SDS011;27838;43.858;25.974;2023-05-10T04:34:23;31.48;;;15.23;;
42168;SDS011;27838;43.858;25.974;2023-05-10T04:36:51;39.63;;;22.23;;
42168;SDS011;27838;43.858;25.974;2023-05-10T04:39:17;35.67;;;21.45;;
42168;SDS011;27838;43.858;25.974;2023-05-10T04:41:44;31.17;;;18.40;;
42168;SDS011;27838;43.858;25.974;2023-05-10T04:44:10;28.58;;;15.93;;
42168;SDS011;27838;43.858;25.974;2023-05-10T04:46:37;28.52;;;14.23;;
42168;SDS011;27838;43.858;25.974;2023-05-10T04:49:03;21.25;;;14.75;;
42168;SDS011;27838;43.858;25.974;2023-05-10T04:51:30;21.58;;;16.15;;
42168;SDS011;27838;43.858;25.974;2023-05-10T04:53:57;30.58;;;18.33;;
42168;SDS011;27838;43.858;25.974;2023-05-10T04:56:24;32.75;;;18.65;;
42168;SDS011;27838;43.858;25.974;2023-05-10T04:58:50;32.03;;;20.15;;
42168;SDS011;27838;43.858;25.974;2023-05-10T05:01:17;34.55;;;21.50;;
42168;SDS011;27838;43.858;25.974;2023-05-10T05:03:43;35.08;;;21.60;;
42168;SDS011;27838;43.858;25.974;2023-05-10T05:06:10;40.38;;;19.80;;
42168;SDS011;27838;43.858;25.974;2023-05-10T05:08:36;39.78;;;21.02;;
42168;SDS011;27838;43.858;25.974;2023-05-10T05:11:03;30.60;;;19.75;;
42168;SDS011;27838;43.858;25.974;2023-05-10T05:13:29;45.13;;;21.08;;
42168;SDS011;27838;43.858;25.974;2023-05-10T05:15:56;37.30;;;21.80;;
42168;SDS011;27838;43.858;25.974;2023-05-10T05:18:22;38.78;;;21.40;;
42168;SDS011;27838;43.858;25.974;2023-05-10T05:20:49;34.33;;;19.83;;
42168;SDS011;27838;43.858;25.974;2023-05-10T05:23:15;34.40;;;19.90;;
42168;SDS011;27838;43.858;25.974;2023-05-10T05:25:43;38.08;;;19.23;;
42168;SDS011;27838;43.858;25.974;2023-05-10T05:28:09;30.60;;;19.45;;
42168;SDS011;27838;43.858;25.974;2023-05-10T05:30:36;37.90;;;19.83;;
42168;SDS011;27838;43.858;25.974;2023-05-10T05:33:02;42.88;;;20.52;;
42168;SDS011;27838;43.858;25.974;2023-05-10T05:35:29;34.50;;;20.33;;
42168;SDS011;27838;43.858;25.974;2023-05-10T05:37:55;29.52;;;19.92;;
42168;SDS011;27838;43.858;25.974;2023-05-10T05:40:22;42.55;;;21.08;;
42168;SDS011;27838;43.858;25.974;2023-05-10T05:42:49;34.90;;;19.58;;
42168;SDS011;27838;43.858;25.974;2023-05-10T05:45:17;33.28;;;19.83;;
42168;SDS011;27838;43.858;25.974;2023-05-10T05:47:43;34.00;;;20.05;;
42168;SDS011;27838;43.858;25.974;2023-05-10T05:50:10;44.35;;;22.85;;
42168;SDS011;27838;43.858;25.974;2023-05-10T05:52:37;34.25;;;24.00;;
42168;SDS011;27838;43.858;25.974;2023-05-10T05:55:03;35.55;;;23.25;;
42168;SDS011;27838;43.858;25.974;2023-05-10T05:57:30;37.05;;;22.42;;
42168;SDS011;27838;43.858;25.974;2023-05-10T05:59:57;41.00;;;22.45;;
42168;SDS011;27838;43.858;25.974;2023-05-10T06:02:24;30.60;;;20.77;;
42168;SDS011;27838;43.858;25.974;2023-05-10T06:04:51;34.20;;;20.33;;
42168;SDS011;27838;43.858;25.974;2023-05-10T06:07:17;31.65;;;20.80;;
42168;SDS011;27838;43.858;25.974;2023-05-10T06:09:44;45.17;;;21.35;;
42168;SDS011;27838;43.858;25.974;2023-05-10T06:12:10;46.03;;;23.25;;
42168;SDS011;27838;43.858;25.974;2023-05-10T06:14:37;49.30;;;24.88;;
42168;SDS011;27838;43.858;25.974;2023-05-10T06:17:04;38.45;;;22.90;;
42168;SDS011;27838;43.858;25.974;2023-05-10T06:19:31;37.85;;;22.17;;
42168;SDS011;27838;43.858;25.974;2023-05-10T06:21:58;44.28;;;23.65;;
42168;SDS011;27838;43.858;25.974;2023-05-10T06:24:24;45.25;;;20.20;;
42168;SDS011;27838;43.858;25.974;2023-05-10T06:26:52;36.25;;;18.10;;
42168;SDS011;27838;43.858;25.974;2023-05-10T06:29:18;33.78;;;18.73;;
42168;SDS011;27838;43.858;25.974;2023-05-10T06:31:45;51.20;;;21.98;;
42168;SDS011;27838;43.858;25.974;2023-05-10T06:34:11;31.13;;;17.08;;
42168;SDS011;27838;43.858;25.974;2023-05-10T06:36:38;33.80;;;16.17;;
42168;SDS011;27838;43.858;25.974;2023-05-10T06:39:05;29.15;;;16.08;;
42168;SDS011;27838;43.858;25.974;2023-05-10T06:41:32;25.42;;;16.23;;
42168;SDS011;27838;43.858;25.974;2023-05-10T06:43:58;29.23;;;18.10;;
42168;SDS011;27838;43.858;25.974;2023-05-10T06:46:25;29.27;;;17.30;;
42168;SDS011;27838;43.858;25.974;2023-05-10T06:48:51;27.73;;;16.52;;
42168;SDS011;27838;43.858;25.974;2023-05-10T06:51:18;24.65;;;16.30;;
42168;SDS011;27838;43.858;25.974;2023-05-10T06:53:46;27.50;;;16.42;;
42168;SDS011;27838;43.858;25.974;2023-05-10T06:56:12;28.48;;;14.55;;
42168;SDS011;27838;43.858;25.974;2023-05-10T06:58:39;30.33;;;15.90;;
42168;SDS011;27838;43.858;25.974;2023-05-10T07:01:05;29.60;;;13.95;;
42168;SDS011;27838;43.858;25.974;2023-05-10T07:03:32;36.67;;;16.15;;
42168;SDS011;27838;43.858;25.974;2023-05-10T07:06:02;35.65;;;15.75;;
42168;SDS011;27838;43.858;25.974;2023-05-10T07:08:30;26.15;;;13.45;;
42168;SDS011;27838;43.858;25.974;2023-05-10T07:11:03;24.13;;;13.55;;
42168;SDS011;27838;43.858;25.974;2023-05-10T07:13:32;37.20;;;14.05;;
42168;SDS011;27838;43.858;25.974;2023-05-10T07:16:01;27.60;;;15.13;;
42168;SDS011;27838;43.858;25.974;2023-05-10T07:18:28;29.35;;;12.60;;
42168;SDS011;27838;43.858;25.974;2023-05-10T07:20:54;31.95;;;12.73;;
42168;SDS011;27838;43.858;25.974;2023-05-10T07:23:21;31.92;;;13.35;;
42168;SDS011;27838;43.858;25.974;2023-05-10T07:25:48;37.65;;;13.80;;
42168;SDS011;27838;43.858;25.974;2023-05-10T07:28:16;39.63;;;14.40;;
42168;SDS011;27838;43.858;25.974;2023-05-10T07:30:43;33.85;;;13.43;;
42168;SDS011;27838;43.858;25.974;2023-05-10T07:33:10;32.42;;;12.52;;
42168;SDS011;27838;43.858;25.974;2023-05-10T07:35:38;41.28;;;13.75;;
42168;SDS011;27838;43.858;25.974;2023-05-10T07:38:05;29.40;;;12.82;;
42168;SDS011;27838;43.858;25.974;2023-05-10T07:40:32;31.13;;;11.25;;
42168;SDS011;27838;43.858;25.974;2023-05-10T07:42:58;35.35;;;12.93;;
42168;SDS011;27838;43.858;25.974;2023-05-10T07:45:26;27.00;;;10.90;;
42168;SDS011;27838;43.858;25.974;2023-05-10T07:47:53;23.48;;;10.23;;
42168;SDS011;27838;43.858;25.974;2023-05-10T07:50:22;20.17;;;9.95;;
42168;SDS011;27838;43.858;25.974;2023-05-10T07:52:48;29.52;;;9.23;;
42168;SDS011;27838;43.858;25.974;2023-05-10T07:55:15;18.52;;;8.80;;
42168;SDS011;27838;43.858;25.974;2023-05-10T07:57:42;25.13;;;10.02;;
42168;SDS011;27838;43.858;25.974;2023-05-10T08:00:08;22.48;;;8.48;;
42168;SDS011;27838;43.858;25.974;2023-05-10T08:02:38;22.20;;;8.95;;
42168;SDS011;27838;43.858;25.974;2023-05-10T08:05:05;27.55;;;9.13;;
42168;SDS011;27838;43.858;25.974;2023-05-10T08:07:31;17.85;;;7.55;;
42168;SDS011;27838;43.858;25.974;2023-05-10T08:09:58;13.65;;;7.60;;
42168;SDS011;27838;43.858;25.974;2023-05-10T08:12:25;15.27;;;7.15;;
42168;SDS011;27838;43.858;25.974;2023-05-10T08:14:51;18.63;;;8.10;;
42168;SDS011;27838;43.858;25.974;2023-05-10T08:17:18;19.45;;;12.68;;
42168;SDS011;27838;43.858;25.974;2023-05-10T08:19:44;21.15;;;9.02;;
42168;SDS011;27838;43.858;25.974;2023-05-10T08:22:11;13.48;;;6.50;;
42168;SDS011;27838;43.858;25.974;2023-05-10T08:24:38;9.57;;;5.65;;
42168;SDS011;27838;43.858;25.974;2023-05-10T08:27:07;22.65;;;6.03;;
42168;SDS011;27838;43.858;25.974;2023-05-10T08:29:34;18.60;;;5.68;;
42168;SDS011;27838;43.858;25.974;2023-05-10T08:32:00;13.88;;;6.00;;
42168;SDS011;27838;43.858;25.974;2023-05-10T08:34:27;6.57;;;3.58;;
42168;SDS011;27838;43.858;25.974;2023-05-10T08:36:53;9.35;;;3.65;;
42168;SDS011;27838;43.858;25.974;2023-05-10T08:39:20;9.32;;;3.47;;
42168;SDS011;27838;43.858;25.974;2023-05-10T08:41:46;5.55;;;3.22;;
42168;SDS011;27838;43.858;25.974;2023-05-10T08:44:14;4.88;;;3.22;;
42168;SDS011;27838;43.858;25.974;2023-05-10T08:46:43;5.72;;;2.70;;
42168;SDS011;27838;43.858;25.974;2023-05-10T08:49:16;13.13;;;3.60;;
42168;SDS011;27838;43.858;25.974;2023-05-10T08:51:46;7.88;;;3.20;;
42168;SDS011;27838;43.858;25.974;2023-05-10T08:54:16;8.18;;;2.72;;
42168;SDS011;27838;43.858;25.974;2023-05-10T08:56:42;9.30;;;2.72;;
42168;SDS011;27838;43.858;25.974;2023-05-10T08:59:09;12.68;;;2.67;;
42168;SDS011;27838;43.858;25.974;2023-05-10T09:01:37;11.57;;;2.50;;
42168;SDS011;27838;43.858;25.974;2023-05-10T09:04:04;6.82;;;2.75;;
42168;SDS011;27838;43.858;25.974;2023-05-10T09:06:31;9.57;;;5.18;;
42168;SDS011;27838;43.858;25.974;2023-05-10T09:08:59;3.33;;;2.10;;
42168;SDS011;27838;43.858;25.974;2023-05-10T09:11:26;3.90;;;2.22;;
42168;SDS011;27838;43.858;25.974;2023-05-10T09:13:54;6.72;;;2.80;;
42168;SDS011;27838;43.858;25.974;2023-05-10T09:16:21;11.20;;;2.83;;
42168;SDS011;27838;43.858;25.974;2023-05-10T09:18:49;9.75;;;2.65;;
42168;SDS011;27838;43.858;25.974;2023-05-10T09:21:15;8.57;;;2.70;;
42168;SDS011;27838;43.858;25.974;2023-05-10T09:23:43;6.63;;;2.70;;
42168;SDS011;27838;43.858;25.974;2023-05-10T09:26:11;5.88;;;2.75;;
42168;SDS011;27838;43.858;25.974;2023-05-10T09:28:57;4.55;;;3.00;;
42168;SDS011;27838;43.858;25.974;2023-05-10T09:31:42;4.03;;;2.75;;
42168;SDS011;27838;43.858;25.974;2023-05-10T09:34:11;3.95;;;2.40;;
42168;SDS011;27838;43.858;25.974;2023-05-10T09:36:51;5.53;;;2.90;;
42168;SDS011;27838;43.858;25.974;2023-05-10T09:39:19;8.63;;;3.10;;
42168;SDS011;27838;43.858;25.974;2023-05-10T09:41:46;12.68;;;3.08;;
42168;SDS011;27838;43.858;25.974;2023-05-10T09:44:16;7.80;;;3.03;;
42168;SDS011;27838;43.858;25.974;2023-05-10T09:46:48;6.57;;;2.92;;
42168;SDS011;27838;43.858;25.974;2023-05-10T09:49:15;14.45;;;3.30;;
42168;SDS011;27838;43.858;25.974;2023-05-10T09:51:41;8.15;;;2.78;;
42168;SDS011;27838;43.858;25.974;2023-05-10T09:54:12;9.80;;;3.38;;
42168;SDS011;27838;43.858;25.974;2023-05-10T09:56:39;7.18;;;2.55;;
42168;SDS011;27838;43.858;25.974;2023-05-10T09:59:07;6.65;;;2.90;;
42168;SDS011;27838;43.858;25.974;2023-05-10T10:01:39;4.00;;;2.40;;
42168;SDS011;27838;43.858;25.974;2023-05-10T10:04:08;12.30;;;3.03;;
42168;SDS011;27838;43.858;25.974;2023-05-10T10:06:36;7.82;;;3.72;;
42168;SDS011;27838;43.858;25.974;2023-05-10T10:09:06;7.35;;;3.78;;
42168;SDS011;27838;43.858;25.974;2023-05-10T10:11:34;10.82;;;5.78;;
42168;SDS011;27838;43.858;25.974;2023-05-10T10:14:02;8.07;;;3.80;;
42168;SDS011;27838;43.858;25.974;2023-05-10T10:16:28;9.77;;;2.97;;
42168;SDS011;27838;43.858;25.974;2023-05-10T10:18:56;3.63;;;2.33;;
42168;SDS011;27838;43.858;25.974;2023-05-10T10:21:23;6.20;;;2.70;;
42168;SDS011;27838;43.858;25.974;2023-05-10T10:23:50;8.80;;;2.60;;
42168;SDS011;27838;43.858;25.974;2023-05-10T10:26:18;6.43;;;2.63;;
42168;SDS011;27838;43.858;25.974;2023-05-10T10:34:28;7.53;;;2.83;;
42168;SDS011;27838;43.858;25.974;2023-05-10T10:36:56;7.45;;;2.80;;
42168;SDS011;27838;43.858;25.974;2023-05-10T10:39:23;2.55;;;2.20;;
42168;SDS011;27838;43.858;25.974;2023-05-10T10:41:54;10.60;;;2.28;;
42168;SDS011;27838;43.858;25.974;2023-05-10T10:47:01;12.07;;;2.67;;
42168;SDS011;27838;43.858;25.974;2023-05-10T10:50:04;3.70;;;2.20;;
42168;SDS011;27838;43.858;25.974;2023-05-10T10:55:19;5.82;;;2.50;;
42168;SDS011;27838;43.858;25.974;2023-05-10T10:57:51;5.88;;;2.30;;
42168;SDS011;27838;43.858;25.974;2023-05-10T11:00:29;2.75;;;1.70;;
42168;SDS011;27838;43.858;25.974;2023-05-10T11:03:08;3.92;;;2.20;;
42168;SDS011;27838;43.858;25.974;2023-05-10T11:08:13;4.03;;;2.45;;
42168;SDS011;27838;43.858;25.974;2023-05-10T11:10:48;13.10;;;2.40;;
42168;SDS011;27838;43.858;25.974;2023-05-10T11:13:17;9.52;;;2.42;;
42168;SDS011;27838;43.858;25.974;2023-05-10T11:15:56;5.22;;;2.30;;
42168;SDS011;27838;43.858;25.974;2023-05-10T11:18:25;10.35;;;2.28;;
42168;SDS011;27838;43.858;25.974;2023-05-10T11:20:58;7.55;;;2.60;;
42168;SDS011;27838;43.858;25.974;2023-05-10T11:23:31;4.07;;;2.03;;
42168;SDS011;27838;43.858;25.974;2023-05-10T11:25:59;4.47;;;2.05;;
42168;SDS011;27838;43.858;25.974;2023-05-10T11:28:26;25.20;;;3.42;;
42168;SDS011;27838;43.858;25.974;2023-05-10T11:30:53;6.45;;;2.20;;
42168;SDS011;27838;43.858;25.974;2023-05-10T11:33:20;10.45;;;2.40;;
42168;SDS011;27838;43.858;25.974;2023-05-10T11:35:47;4.72;;;2.20;;
42168;SDS011;27838;43.858;25.974;2023-05-10T11:38:14;2.28;;;1.70;;
42168;SDS011;27838;43.858;25.974;2023-05-10T11:40:40;5.55;;;2.25;;
42168;SDS011;27838;43.858;25.974;2023-05-10T11:43:08;2.85;;;2.03;;
42168;SDS011;27838;43.858;25.974;2023-05-10T11:45:36;3.45;;;1.77;;
42168;SDS011;27838;43.858;25.974;2023-05-10T11:48:03;4.85;;;1.73;;
42168;SDS011;27838;43.858;25.974;2023-05-10T11:50:31;2.00;;;1.80;;
42168;SDS011;27838;43.858;25.974;2023-05-10T11:52:58;5.95;;;1.50;;
42168;SDS011;27838;43.858;25.974;2023-05-10T11:55:24;10.80;;;2.60;;
42168;SDS011;27838;43.858;25.974;2023-05-10T11:57:52;20.40;;;3.53;;
42168;SDS011;27838;43.858;25.974;2023-05-10T12:00:19;6.20;;;2.38;;
42168;SDS011;27838;43.858;25.974;2023-05-10T12:02:46;5.43;;;2.08;;
42168;SDS011;27838;43.858;25.974;2023-05-10T12:05:15;7.20;;;2.65;;
42168;SDS011;27838;43.858;25.974;2023-05-10T12:07:42;9.48;;;1.75;;
42168;SDS011;27838;43.858;25.974;2023-05-10T12:10:09;6.18;;;2.08;;
42168;SDS011;27838;43.858;25.974;2023-05-10T12:12:39;6.63;;;1.80;;
42168;SDS011;27838;43.858;25.974;2023-05-10T12:15:11;5.35;;;2.50;;
42168;SDS011;27838;43.858;25.974;2023-05-10T12:17:45;9.48;;;2.15;;
42168;SDS011;27838;43.858;25.974;2023-05-10T12:20:15;4.97;;;2.05;;
42168;SDS011;27838;43.858;25.974;2023-05-10T12:22:54;6.13;;;2.45;;
42168;SDS011;27838;43.858;25.974;2023-05-10T12:25:29;5.63;;;2.17;;
42168;SDS011;27838;43.858;25.974;2023-05-10T12:27:58;17.50;;;8.77;;
42168;SDS011;27838;43.858;25.974;2023-05-10T12:30:27;5.53;;;3.00;;
42168;SDS011;27838;43.858;25.974;2023-05-10T12:32:59;4.20;;;2.05;;
42168;SDS011;27838;43.858;25.974;2023-05-10T12:35:44;5.18;;;2.00;;
42168;SDS011;27838;43.858;25.974;2023-05-10T12:38:28;6.88;;;2.40;;
42168;SDS011;27838;43.858;25.974;2023-05-10T12:41:00;8.30;;;2.20;;
42168;SDS011;27838;43.858;25.974;2023-05-10T12:43:28;7.80;;;1.90;;
42168;SDS011;27838;43.858;25.974;2023-05-10T12:45:55;8.05;;;2.63;;
42168;SDS011;27838;43.858;25.974;2023-05-10T12:48:22;5.93;;;1.77;;
42168;SDS011;27838;43.858;25.974;2023-05-10T12:50:49;5.78;;;1.75;;
42168;SDS011;27838;43.858;25.974;2023-05-10T12:53:18;5.82;;;2.20;;
42168;SDS011;27838;43.858;25.974;2023-05-10T12:55:45;8.10;;;2.80;;
42168;SDS011;27838;43.858;25.974;2023-05-10T12:58:11;8.10;;;2.08;;
42168;SDS011;27838;43.858;25.974;2023-05-10T13:00:41;9.77;;;2.42;;
42168;SDS011;27838;43.858;25.974;2023-05-10T13:03:10;13.13;;;3.50;;
42168;SDS011;27838;43.858;25.974;2023-05-10T13:05:36;17.08;;;3.90;;
42168;SDS011;27838;43.858;25.974;2023-05-10T13:08:03;10.57;;;3.28;;
42168;SDS011;27838;43.858;25.974;2023-05-10T13:10:31;3.90;;;1.90;;
42168;SDS011;27838;43.858;25.974;2023-05-10T13:13:00;25.50;;;6.15;;
42168;SDS011;27838;43.858;25.974;2023-05-10T13:15:27;6.95;;;1.60;;
42168;SDS011;27838;43.858;25.974;2023-05-10T13:17:54;8.82;;;2.28;;
42168;SDS011;27838;43.858;25.974;2023-05-10T13:20:20;16.30;;;2.50;;
42168;SDS011;27838;43.858;25.974;2023-05-10T13:22:47;7.65;;;2.30;;
42168;SDS011;27838;43.858;25.974;2023-05-10T13:25:13;5.07;;;2.10;;
42168;SDS011;27838;43.858;25.974;2023-05-10T13:27:40;7.72;;;2.50;;
42168;SDS011;27838;43.858;25.974;2023-05-10T13:30:07;4.15;;;2.10;;
42168;SDS011;27838;43.858;25.974;2023-05-10T13:32:36;15.43;;;3.85;;
42168;SDS011;27838;43.858;25.974;2023-05-10T13:35:03;17.08;;;2.15;;
42168;SDS011;27838;43.858;25.974;2023-05-10T13:37:31;10.80;;;2.50;;
42168;SDS011;27838;43.858;25.974;2023-05-10T13:40:00;36.42;;;3.97;;
42168;SDS011;27838;43.858;25.974;2023-05-10T13:42:30;16.00;;;3.47;;
42168;SDS011;27838;43.858;25.974;2023-05-10T13:44:58;16.05;;;2.47;;
42168;SDS011;27838;43.858;25.974;2023-05-10T13:47:26;4.03;;;2.20;;
42168;SDS011;27838;43.858;25.974;2023-05-10T13:49:53;6.88;;;2.50;;
42168;SDS011;27838;43.858;25.974;2023-05-10T13:52:19;21.38;;;2.42;;
42168;SDS011;27838;43.858;25.974;2023-05-10T13:54:46;12.82;;;2.40;;
42168;SDS011;27838;43.858;25.974;2023-05-10T13:57:13;11.10;;;3.22;;
42168;SDS011;27838;43.858;25.974;2023-05-10T13:59:41;13.63;;;6.82;;
42168;SDS011;27838;43.858;25.974;2023-05-10T14:02:08;7.20;;;3.20;;
42168;SDS011;27838;43.858;25.974;2023-05-10T14:04:35;9.60;;;2.10;;
42168;SDS011;27838;43.858;25.974;2023-05-10T14:07:02;16.17;;;5.53;;
42168;SDS011;27838;43.858;25.974;2023-05-10T14:09:28;10.40;;;3.20;;
42168;SDS011;27838;43.858;25.974;2023-05-10T14:11:55;9.82;;;2.15;;
42168;SDS011;27838;43.858;25.974;2023-05-10T14:14:22;14.65;;;3.00;;
42168;SDS011;27838;43.858;25.974;2023-05-10T14:16:50;26.73;;;3.40;;
42168;SDS011;27838;43.858;25.974;2023-05-10T14:19:16;5.97;;;2.05;;
42168;SDS011;27838;43.858;25.974;2023-05-10T14:21:46;11.85;;;3.75;;
42168;SDS011;27838;43.858;25.974;2023-05-10T14:24:16;6.38;;;2.35;;
42168;SDS011;27838;43.858;25.974;2023-05-10T14:26:43;27.45;;;4.82;;
42168;SDS011;27838;43.858;25.974;2023-05-10T14:29:10;10.70;;;2.83;;
42168;SDS011;27838;43.858;25.974;2023-05-10T14:31:39;9.23;;;2.30;;
42168;SDS011;27838;43.858;25.974;2023-05-10T14:34:06;17.50;;;7.05;;
42168;SDS011;27838;43.858;25.974;2023-05-10T14:36:33;6.97;;;3.15;;
42168;SDS011;27838;43.858;25.974;2023-05-10T14:38:59;5.07;;;2.38;;
42168;SDS011;27838;43.858;25.974;2023-05-10T14:41:26;24.02;;;3.25;;
42168;SDS011;27838;43.858;25.974;2023-05-10T14:43:52;9.77;;;2.33;;
42168;SDS011;27838;43.858;25.974;2023-05-10T14:46:19;8.43;;;2.70;;
42168;SDS011;27838;43.858;25.974;2023-05-10T14:48:45;14.23;;;5.25;;
42168;SDS011;27838;43.858;25.974;2023-05-10T14:51:12;11.13;;;2.45;;
42168;SDS011;27838;43.858;25.974;2023-05-10T14:53:39;11.68;;;2.22;;
42168;SDS011;27838;43.858;25.974;2023-05-10T14:56:05;5.55;;;2.40;;
42168;SDS011;27838;43.858;25.974;2023-05-10T14:58:32;6.57;;;2.20;;